KJAS/JAS METAR and TAF weather

Enter ICAO airport designator
Station Type Date Time Source
KJAS METAR 2019/08/24 17:35 UTC NOAA

KJAS 241735Z AUTO 08007KT 10SM BKN026 BKN031 OVC038 31/24 A2996 RMK AO2 T03050243


Station Type Date Time Source
KJAS Decoded METAR 2019/08/24 17:35 UTC NOAA

Station name not available
Aug 24, 2019 - 01:35 PM EDT / 2019.08.24 1735 UTC
Wind: from the E (080 degrees) at 8 MPH (7 KT):0
Visibility: 10 mile(s):0
Sky conditions: overcast
Temperature: 86.9 F (30.5 C)
Heat index: 96.8 F (36.0 C):1
Dew Point: 75.7 F (24.3 C)
Relative Humidity: 69%
Pressure (altimeter): 29.96 in. Hg (1014 hPa)
ob: KJAS 241735Z AUTO 08007KT 10SM BKN026 BKN031 OVC038 31/24 A2996 RMK AO2 T03050243
cycle: 17

Station Type Date Time Source
KJAS TAF UTC NOAA

Error!

Example: see airport list